KMGR

Moultrie Municipal Airport

Moultrie, Georgia, USA

KMGR 110855Z AUTO 00000KT 10SM 00/00 A3029 RMK AO2

Observed Flight Rules
Dec-11 @ 08:55 UTC (32 minutes ago)
Wind Visibility
Calm 10 miles
Temperatures Readings
Current 0°C / 32°F
Dewpoint 0°C / 32°F
Humidity 100%
Altimeter 30.29" Hg
Pressure 1026 hPa
Elevation 90
Observed Flight Rules
Dec-11 @ 08:55 UTC
(32 minutes ago)
Wind Visibility
Calm 10 miles
Temperature Dewpoint
0°C / 32°F 0°C / 32°F
Humidity Altimeter Pressure
100% 30.29" Hg 1026 hPa